Архив погоды в Ижме

Метеограмма Ижма
Понедельник, 25 Июня
Время местн. Темп Ветер Видим Явления Облачность нижн/средн/верх Атм. давл. Влжн Точка росы ВНГО R Сост. почвы Tg s
Напр Скр Прв ур.ст ур.м изм
03:00 +13.8° Ю 1 - 20 км - преимущественно облачно 758 761 +0.6 92% +12.5° более 2.5 км - - - -
00:00 +11.6° Ю-В 1 - 20 км - облачно с прояснениями 757 761 +0.3 95% +10.8° более 2.5 км - - - -
Воскресенье, 24 Июня
Время местн. Темп Ветер Видим Явления Облачность нижн/средн/верх Атм. давл. Влжн Точка росы ВНГО R Сост. почвы Tg s
Напр Скр Прв ур.ст ур.м изм
21:00 +16.6° штиль 0 - 20 км - облачно с прояснениями 757 760 0 86% +14.2° более 2.5 км - - - -
18:00 +26.9° С 2 - 20 км - переменная облачность 757 760 +0.1 35% +10.1° 1.5 км 0 - - -
15:00 +27.1° С-З 3 - 20 км - облачно с прояснениями 757 760 +0.1 36% +10.6° 1.5 км - - - -
12:00 +26.8° З,С-З 1 - 20 км - преимущественно облачно 757 760 -0.2 33% +9.3° 1 км - - - -
09:00 +25.8° Ю 1 - 20 км - облачно с прояснениями 757 760 -0.2 37% +10.1° более 2.5 км - - - -
06:00 +18.6° Ю 1 - 20 км - переменная облачность 757 761 +0.5 67% +12.4° более 2.5 км 0 Влажная (без луж) - -
03:00 +8.9° штиль 0 - 20 км - переменная облачность 756 760 +0.8 96% +8.3° более 2.5 км - - - -
00:00 +8.2° штиль 0 - 4 км дымка переменная облачность 756 759 +0.8 93% +7.1° более 2.5 км - - - -
Суббота, 23 Июня
Время местн. Темп Ветер Видим Явления Облачность нижн/средн/верх Атм. давл. Влжн Точка росы ВНГО R Сост. почвы Tg s
Напр Скр Прв ур.ст ур.м изм
21:00 +14° штиль 0 - 20 км - переменная облачность 755 759 +0.5 93% +12.9° более 2.5 км - - - -
18:00 +21.9° штиль 0 - 20 км - облачно с прояснениями 754 758 -0.1 44% +9.1° более 2.5 км 0 - - -
15:00 +21.3° С-З 2 - 20 км - облачно с прояснениями 755 758 -0.2 51% +10.8° более 2.5 км - - - -
12:00 +16.4° С,С-В 1 - 20 км - переменная облачность 755 758 +0.2 65% +9.8° 1.5 км - - - -
09:00 +13.5° С 2 - 20 км - облачно 755 764 +0.2 75% +9.1° 600 м - - - -
06:00 +12.3° С,С-В 2 - 20 км - облачно 754 758 +0.7 81% +9.2° 600 м 0 Влажная (без луж) - -
03:00 +10.8° С,С-В 2 - 20 км - облачно 754 757 +0.8 86% +8.6° 600 м - - - -
00:00 +11.1° С 2 - 20 км - ясно 753 756 +0.9 82% +8.2° более 2.5 км - - - -
Пятница, 22 Июня
Время местн. Темп Ветер Видим Явления Облачность нижн/средн/верх Атм. давл. Влжн Точка росы ВНГО R Сост. почвы Tg s
Напр Скр Прв ур.ст ур.м изм
21:00 +16.1° С,С-В 2 - 20 км - переменная облачность 752 755 +1.1 60% +8.4° более 2.5 км - - - -
18:00 +19.1° С 3 - 20 км - переменная облачность 751 754 +0.9 51% +8.7° более 2.5 км 0 - - -
15:00 +19.1° С 4 10 20 км - переменная облачность 750 753 +0.8 51% +8.7° 1.5 км - - - -
12:00 +17.5° С 4 - 20 км - преимущественно облачно 749 753 +1.5 59% +9.3° 1.5 км - - - -
09:00 +14.7° С 3 - 20 км небо без изменений {дождь} облачно 748 751 +1.3 71% +9.4° более 2.5 км - - - -
06:00 +14° С 3 - 20 км - облачно 746 750 +1.5 74% +9.4° 1 км 0 Влажная (без луж) - -
03:00 +14.1° С,С-З 1 - 20 км - преимущественно облачно 745 748 +1.4 75% +9.7° 1 км - - - -
00:00 +14.6° С 2 - 20 км - облачно с прояснениями 743 747 +1.9 67% +8.6° - - - - -